createdAt,value
2023-05-06T00:00:06.962Z,14.71
2023-05-06T00:02:37.282Z,14.56
2023-05-06T00:05:06.207Z,14.46
2023-05-06T00:07:34.496Z,14.44
2023-05-06T00:10:02.854Z,14.35
2023-05-06T00:12:31.710Z,14.16
2023-05-06T00:14:59.907Z,14.32
2023-05-06T00:17:28.221Z,14.35
2023-05-06T00:19:58.831Z,14.55
2023-05-06T00:22:27.074Z,14.57
2023-05-06T00:24:55.256Z,14.45
2023-05-06T00:27:23.474Z,14.39
2023-05-06T00:29:51.690Z,14.35
2023-05-06T00:32:20.000Z,14.37
2023-05-06T00:34:48.500Z,14.59
2023-05-06T00:37:18.126Z,14.44
2023-05-06T00:39:46.359Z,14.60
2023-05-06T00:42:14.679Z,14.16
2023-05-06T00:44:42.917Z,14.53
2023-05-06T00:47:11.190Z,14.56
2023-05-06T00:49:39.458Z,14.59
2023-05-06T00:52:08.031Z,14.51
2023-05-06T00:54:37.845Z,14.62
2023-05-06T00:57:06.351Z,14.43
2023-05-06T00:59:34.744Z,14.25
2023-05-06T01:02:03.087Z,14.23
2023-05-06T01:04:31.495Z,14.24
2023-05-06T01:07:09.790Z,14.12
2023-05-06T01:09:43.901Z,13.49
2023-05-06T01:12:18.485Z,13.88
2023-05-06T01:14:57.313Z,14.08
2023-05-06T01:17:28.779Z,14.29
2023-05-06T01:20:01.829Z,14.46
2023-05-06T01:22:31.821Z,14.54
2023-05-06T01:25:01.774Z,14.43
2023-05-06T01:27:30.265Z,14.60
2023-05-06T01:29:59.980Z,14.27
2023-05-06T01:32:37.702Z,14.36
2023-05-06T01:35:16.832Z,13.95
2023-05-06T01:37:52.932Z,14.05
2023-05-06T01:40:26.416Z,13.92
2023-05-06T01:42:55.800Z,13.41
2023-05-06T01:45:28.956Z,13.23
2023-05-06T01:47:58.179Z,13.24
2023-05-06T01:50:27.201Z,13.32
2023-05-06T01:52:59.265Z,13.74
2023-05-06T01:55:29.255Z,13.84
2023-05-06T01:57:57.833Z,13.68
2023-05-06T02:00:26.702Z,13.61
2023-05-06T02:02:55.202Z,13.36
2023-05-06T02:05:23.594Z,13.35
2023-05-06T02:07:51.950Z,13.50
2023-05-06T02:10:20.418Z,13.51
2023-05-06T02:12:50.255Z,13.25
2023-05-06T02:15:18.629Z,13.10
2023-05-06T02:17:46.952Z,13.30
2023-05-06T02:20:15.200Z,13.36
2023-05-06T02:22:43.481Z,12.99
2023-05-06T02:25:11.921Z,13.03
2023-05-06T02:27:40.302Z,13.12
2023-05-06T02:30:13.067Z,13.21
2023-05-06T02:32:41.383Z,13.23
2023-05-06T02:35:10.835Z,12.98
2023-05-06T02:37:39.289Z,13.33
2023-05-06T02:40:09.139Z,13.24
2023-05-06T02:42:37.379Z,13.17
2023-05-06T02:45:06.403Z,13.05
2023-05-06T02:47:36.141Z,13.03
2023-05-06T02:50:04.929Z,12.94
2023-05-06T02:52:34.650Z,12.32
2023-05-06T02:55:03.251Z,12.06
2023-05-06T02:57:31.491Z,11.76
2023-05-06T02:59:59.859Z,11.73
2023-05-06T03:02:28.083Z,11.58
2023-05-06T03:04:57.735Z,11.95
2023-05-06T03:07:26.042Z,12.50
2023-05-06T03:09:54.429Z,12.75
2023-05-06T03:12:22.664Z,12.57
2023-05-06T03:14:50.897Z,12.26
2023-05-06T03:17:19.158Z,12.23
2023-05-06T03:19:47.409Z,12.00
2023-05-06T03:22:17.109Z,11.78
2023-05-06T03:24:45.313Z,11.59
2023-05-06T03:27:13.587Z,11.47
2023-05-06T03:29:41.863Z,11.70
2023-05-06T03:32:10.095Z,11.61
2023-05-06T03:34:38.361Z,11.66
2023-05-06T03:37:06.646Z,11.63
2023-05-06T03:39:36.290Z,11.46
2023-05-06T03:42:05.923Z,11.23
2023-05-06T03:44:35.395Z,11.17
2023-05-06T03:47:03.636Z,11.59
2023-05-06T03:49:31.920Z,11.35
2023-05-06T03:52:00.877Z,11.85
2023-05-06T03:54:29.311Z,12.16
2023-05-06T03:56:58.909Z,12.10
2023-05-06T03:59:27.290Z,12.28
2023-05-06T04:01:56.424Z,12.55
2023-05-06T04:04:25.414Z,12.43
2023-05-06T04:06:53.628Z,12.65
2023-05-06T04:09:21.943Z,12.75
2023-05-06T04:11:50.431Z,12.80
2023-05-06T04:14:20.068Z,13.00
2023-05-06T04:16:48.295Z,13.20
2023-05-06T04:19:17.809Z,13.35
2023-05-06T04:21:46.172Z,13.56
2023-05-06T04:24:16.142Z,13.76
2023-05-06T04:26:44.413Z,13.56
2023-05-06T04:29:12.765Z,13.48
2023-05-06T04:31:42.485Z,13.38
2023-05-06T04:34:11.358Z,13.49
2023-05-06T04:36:40.670Z,13.62
2023-05-06T04:39:10.522Z,13.79
2023-05-06T04:41:38.849Z,13.92
2023-05-06T04:44:07.228Z,13.98
2023-05-06T04:46:36.145Z,14.02
2023-05-06T04:49:05.753Z,13.93
2023-05-06T04:51:34.063Z,13.85
2023-05-06T04:54:02.290Z,14.04
2023-05-06T04:56:30.485Z,14.20
2023-05-06T04:58:58.714Z,14.42
2023-05-06T05:01:27.121Z,14.39
2023-05-06T05:03:55.484Z,14.70
2023-05-06T05:06:25.226Z,14.71
2023-05-06T05:08:55.230Z,14.86
2023-05-06T05:11:23.718Z,14.94
2023-05-06T05:13:54.282Z,14.90
2023-05-06T05:16:23.661Z,15.16
2023-05-06T05:18:51.911Z,15.24
2023-05-06T05:21:21.227Z,15.21
2023-05-06T05:23:50.902Z,15.63
2023-05-06T05:26:25.552Z,15.51
2023-05-06T05:28:53.826Z,15.68
2023-05-06T05:31:22.103Z,15.88
2023-05-06T05:33:50.474Z,15.74
2023-05-06T05:36:18.761Z,16.06
2023-05-06T05:38:47.972Z,16.36
2023-05-06T05:41:17.770Z,16.40
2023-05-06T05:43:46.031Z,16.57
2023-05-06T05:46:14.450Z,16.81
2023-05-06T05:48:43.422Z,17.06
2023-05-06T05:51:12.082Z,16.95
2023-05-06T05:53:40.427Z,17.18
2023-05-06T05:56:09.022Z,17.03
2023-05-06T05:58:38.779Z,17.47
2023-05-06T06:01:07.080Z,17.76
2023-05-06T06:03:35.449Z,16.93
2023-05-06T06:06:03.829Z,18.26
2023-05-06T06:08:32.624Z,18.49
2023-05-06T06:11:02.172Z,18.60
2023-05-06T06:13:30.547Z,18.24
2023-05-06T06:16:00.941Z,18.60
2023-05-06T06:18:29.312Z,19.04
2023-05-06T06:20:57.641Z,19.35
2023-05-06T06:23:26.289Z,19.85
2023-05-06T06:25:54.472Z,19.68
2023-05-06T06:28:22.859Z,19.68
2023-05-06T06:30:51.094Z,19.88
2023-05-06T06:33:20.787Z,20.24
2023-05-06T06:35:49.113Z,20.13
2023-05-06T06:38:17.460Z,20.24
2023-05-06T06:40:45.954Z,20.13
2023-05-06T06:43:14.230Z,20.09
2023-05-06T06:45:42.655Z,20.57
2023-05-06T06:48:11.536Z,21.01
2023-05-06T06:50:41.375Z,20.66
2023-05-06T06:53:11.919Z,20.90
2023-05-06T06:55:40.192Z,20.86
2023-05-06T06:58:08.549Z,20.55
2023-05-06T07:00:36.937Z,21.30
2023-05-06T07:03:05.416Z,21.91
2023-05-06T07:05:33.746Z,22.03
2023-05-06T07:08:03.620Z,21.71
2023-05-06T07:10:32.033Z,21.50
2023-05-06T07:13:00.352Z,21.16
2023-05-06T07:15:28.686Z,20.90
2023-05-06T07:17:57.033Z,20.22
2023-05-06T07:20:27.470Z,20.47
2023-05-06T07:22:55.891Z,20.21
2023-05-06T07:25:25.706Z,20.16
2023-05-06T07:27:54.085Z,20.24
2023-05-06T07:30:23.674Z,19.86
2023-05-06T07:32:52.030Z,19.65
2023-05-06T07:35:20.500Z,19.53
2023-05-06T07:37:48.832Z,19.87
2023-05-06T07:40:17.268Z,19.90
2023-05-06T07:42:46.958Z,20.19
2023-05-06T07:45:15.425Z,20.19
2023-05-06T07:47:43.825Z,20.60
2023-05-06T07:50:12.486Z,20.45
2023-05-06T07:52:40.842Z,20.55
2023-05-06T07:55:11.028Z,20.48
2023-05-06T07:57:39.466Z,20.13
2023-05-06T08:00:10.769Z,20.06
2023-05-06T08:02:44.488Z,20.16
2023-05-06T08:05:13.489Z,20.18
2023-05-06T08:07:42.528Z,19.84
2023-05-06T08:10:11.699Z,20.00
2023-05-06T08:12:39.953Z,20.14
2023-05-06T08:15:11.476Z,20.32
2023-05-06T08:17:40.278Z,20.25
2023-05-06T08:20:10.638Z,20.36
2023-05-06T08:22:39.555Z,20.39
2023-05-06T08:25:09.033Z,20.34
2023-05-06T08:27:37.846Z,20.30
2023-05-06T08:30:06.982Z,20.30
2023-05-06T08:32:36.998Z,19.99
2023-05-06T08:35:05.665Z,20.43
2023-05-06T08:37:34.160Z,20.13
2023-05-06T08:40:02.456Z,20.14
2023-05-06T08:42:32.205Z,20.29
2023-05-06T08:45:00.863Z,19.40
2023-05-06T08:47:29.267Z,19.69
2023-05-06T08:49:58.928Z,19.81
2023-05-06T08:52:28.216Z,19.33
2023-05-06T08:55:01.738Z,19.39
2023-05-06T08:57:31.874Z,19.59
2023-05-06T09:00:00.565Z,19.53
2023-05-06T09:02:29.247Z,19.17
2023-05-06T09:04:58.950Z,19.35
2023-05-06T09:07:27.208Z,19.11
2023-05-06T09:09:55.590Z,19.20
2023-05-06T09:12:25.359Z,19.07
2023-05-06T09:14:55.678Z,19.39
2023-05-06T09:17:26.658Z,19.40
2023-05-06T09:19:57.224Z,19.45
2023-05-06T09:22:28.688Z,19.45
2023-05-06T09:24:57.851Z,19.67
2023-05-06T09:27:27.369Z,19.70
2023-05-06T09:30:02.872Z,19.94
2023-05-06T09:32:31.473Z,19.81
2023-05-06T09:35:00.496Z,19.55
2023-05-06T09:37:30.474Z,19.55
2023-05-06T09:40:04.965Z,19.47
2023-05-06T09:42:33.342Z,19.64
2023-05-06T09:45:03.661Z,19.51
2023-05-06T09:47:35.592Z,19.34
2023-05-06T09:50:04.674Z,19.33
2023-05-06T09:52:34.865Z,19.58
2023-05-06T09:55:05.144Z,19.51
2023-05-06T09:57:34.118Z,19.65
2023-05-06T10:00:04.244Z,19.61
2023-05-06T10:02:33.143Z,19.81
2023-05-06T10:05:06.032Z,19.87
2023-05-06T10:07:37.643Z,19.84
2023-05-06T10:10:09.700Z,19.78
2023-05-06T10:12:38.412Z,19.89
2023-05-06T10:15:08.282Z,19.84
2023-05-06T10:17:38.700Z,19.69
2023-05-06T10:20:10.061Z,19.93
2023-05-06T10:22:49.522Z,19.93
2023-05-06T10:25:31.049Z,19.98
2023-05-06T10:28:00.273Z,19.97
2023-05-06T10:30:31.575Z,20.14
2023-05-06T10:33:04.748Z,20.10
2023-05-06T10:35:42.587Z,20.11
2023-05-06T10:38:16.370Z,20.29
2023-05-06T10:40:45.720Z,19.95
2023-05-06T10:43:29.212Z,20.38
2023-05-06T10:46:01.756Z,20.30
2023-05-06T10:48:30.489Z,20.60
2023-05-06T10:51:22.996Z,20.53
2023-05-06T10:54:00.380Z,20.85
2023-05-06T10:56:28.709Z,20.58
2023-05-06T10:58:57.772Z,20.77
2023-05-06T11:01:28.466Z,21.00
2023-05-06T11:03:57.009Z,21.00
2023-05-06T11:06:46.765Z,21.09
2023-05-06T11:09:21.662Z,21.27
2023-05-06T11:11:52.425Z,21.53
2023-05-06T11:14:28.907Z,21.89
2023-05-06T11:16:59.179Z,21.83
2023-05-06T11:19:28.779Z,22.16
2023-05-06T11:21:58.937Z,21.90
2023-05-06T11:24:30.166Z,22.01
2023-05-06T11:27:04.339Z,21.79
2023-05-06T11:29:33.219Z,21.48
2023-05-06T11:32:01.494Z,21.93
2023-05-06T11:34:31.285Z,22.16
2023-05-06T11:37:02.755Z,22.51
2023-05-06T11:39:39.936Z,22.40
2023-05-06T11:42:09.197Z,22.44
2023-05-06T11:44:39.509Z,22.17
2023-05-06T11:47:09.023Z,22.00
2023-05-06T11:49:38.782Z,22.26
2023-05-06T11:52:07.181Z,22.44
2023-05-06T11:54:39.704Z,22.80
2023-05-06T11:57:08.308Z,22.42
2023-05-06T11:59:38.646Z,22.46
2023-05-06T12:02:08.272Z,22.60
2023-05-06T12:04:41.459Z,22.83
2023-05-06T12:07:11.214Z,22.77
2023-05-06T12:09:43.078Z,22.93
2023-05-06T12:12:12.513Z,22.86
2023-05-06T12:14:41.311Z,23.10
2023-05-06T12:17:09.791Z,22.91
2023-05-06T12:19:38.102Z,22.96
2023-05-06T12:22:16.586Z,23.27
2023-05-06T12:24:46.318Z,23.56
2023-05-06T12:27:14.751Z,23.80
2023-05-06T12:29:54.061Z,23.53
2023-05-06T12:32:22.331Z,23.70
2023-05-06T12:34:50.649Z,23.37
2023-05-06T12:37:26.633Z,22.84
2023-05-06T12:39:58.754Z,23.40
2023-05-06T12:42:28.269Z,23.55
2023-05-06T12:44:57.062Z,23.61
2023-05-06T12:47:26.906Z,23.74
2023-05-06T12:49:58.468Z,23.89
2023-05-06T12:52:28.799Z,24.17
2023-05-06T12:54:58.668Z,24.12
2023-05-06T12:57:27.148Z,24.16
2023-05-06T12:59:56.573Z,24.19
2023-05-06T13:02:24.974Z,24.18
2023-05-06T13:04:53.334Z,23.50
2023-05-06T13:07:22.735Z,23.67
2023-05-06T13:09:50.998Z,23.46
2023-05-06T13:12:20.662Z,23.19
2023-05-06T13:14:48.906Z,23.15
2023-05-06T13:17:17.375Z,23.63
2023-05-06T13:19:45.778Z,23.19
2023-05-06T13:22:14.103Z,23.22
2023-05-06T13:24:42.382Z,22.99
2023-05-06T13:27:10.727Z,23.07
2023-05-06T13:29:40.622Z,23.19
2023-05-06T13:32:09.173Z,22.96
2023-05-06T13:34:37.692Z,23.52
2023-05-06T13:37:06.023Z,24.55
2023-05-06T13:39:34.422Z,24.84
2023-05-06T13:42:03.110Z,25.34
2023-05-06T13:44:32.619Z,25.18
2023-05-06T13:47:02.297Z,25.17
2023-05-06T13:49:30.608Z,24.92
2023-05-06T13:51:59.074Z,24.56
2023-05-06T13:54:27.443Z,24.36
2023-05-06T13:56:55.685Z,24.66
2023-05-06T13:59:23.992Z,24.34
2023-05-06T14:01:54.224Z,24.71
2023-05-06T14:04:24.046Z,24.30
2023-05-06T14:06:52.373Z,24.44
2023-05-06T14:09:21.013Z,24.61
2023-05-06T14:11:49.265Z,24.18
2023-05-06T14:14:17.545Z,23.60
2023-05-06T14:16:46.001Z,23.44
2023-05-06T14:19:14.376Z,23.64
2023-05-06T14:21:44.061Z,23.10
2023-05-06T14:24:12.670Z,23.07
2023-05-06T14:26:41.612Z,22.99
2023-05-06T14:29:10.019Z,23.19
2023-05-06T14:31:38.254Z,23.18
2023-05-06T14:34:06.707Z,23.31
2023-05-06T14:36:34.995Z,23.40
2023-05-06T14:39:04.697Z,24.11
2023-05-06T14:41:33.002Z,24.21
2023-05-06T14:44:01.265Z,23.95
2023-05-06T14:46:29.925Z,23.87
2023-05-06T14:48:58.399Z,23.57
2023-05-06T14:51:26.676Z,23.88
2023-05-06T14:53:54.904Z,24.19
2023-05-06T14:56:24.693Z,24.08
2023-05-06T14:58:53.006Z,24.01
2023-05-06T15:01:21.332Z,23.57
2023-05-06T15:03:50.826Z,23.89
2023-05-06T15:06:19.020Z,24.16
2023-05-06T15:08:47.315Z,23.93
2023-05-06T15:11:15.721Z,23.61
2023-05-06T15:13:45.390Z,23.83
2023-05-06T15:16:13.682Z,23.52
2023-05-06T15:18:42.977Z,23.18
2023-05-06T15:21:13.396Z,23.07
2023-05-06T15:23:41.700Z,22.89
2023-05-06T15:26:09.960Z,22.78
2023-05-06T15:28:38.288Z,22.87
2023-05-06T15:31:08.590Z,22.55
2023-05-06T15:33:36.905Z,22.16
2023-05-06T15:36:05.340Z,22.25
2023-05-06T15:39:00.160Z,22.27
2023-05-06T15:41:31.983Z,21.89
2023-05-06T15:44:01.370Z,22.03
2023-05-06T15:46:32.027Z,22.09
2023-05-06T15:49:31.959Z,21.86
2023-05-06T15:51:49.851Z,21.77
2023-05-06T15:54:19.160Z,21.56
2023-05-06T15:56:47.722Z,21.24
2023-05-06T15:59:16.289Z,21.25
2023-05-06T16:04:17.550Z,21.23
2023-05-06T16:06:46.076Z,21.16
2023-05-06T16:09:14.392Z,20.75
2023-05-06T16:11:42.762Z,20.91
2023-05-06T16:14:11.041Z,20.73
2023-05-06T16:16:39.351Z,20.58
2023-05-06T16:19:09.289Z,20.49
2023-05-06T16:21:37.627Z,20.48
2023-05-06T16:24:06.188Z,20.49
2023-05-06T16:26:34.417Z,20.37
2023-05-06T16:29:02.710Z,20.47
2023-05-06T16:31:31.331Z,20.39
2023-05-06T16:33:59.507Z,20.29
2023-05-06T16:36:29.211Z,20.39
2023-05-06T16:38:57.595Z,20.18
2023-05-06T16:41:26.002Z,20.10
2023-05-06T16:43:55.092Z,20.10
2023-05-06T16:46:24.699Z,19.88
2023-05-06T16:48:53.987Z,19.74
2023-05-06T16:51:22.470Z,19.93
2023-05-06T16:53:52.195Z,19.90
2023-05-06T16:56:20.516Z,19.54
2023-05-06T16:58:48.717Z,19.38
2023-05-06T17:01:17.014Z,19.09
2023-05-06T17:03:45.764Z,19.12
2023-05-06T17:06:14.673Z,19.18
2023-05-06T17:08:43.272Z,18.86
2023-05-06T17:11:12.844Z,18.79
2023-05-06T17:13:41.143Z,18.54
2023-05-06T17:16:09.675Z,18.52
2023-05-06T17:18:38.075Z,18.70
2023-05-06T17:21:08.819Z,18.72
2023-05-06T17:23:37.086Z,18.21
2023-05-06T17:26:09.991Z,18.28
2023-05-06T17:28:40.288Z,18.21
2023-05-06T17:31:08.607Z,18.32
2023-05-06T17:33:36.949Z,18.31
2023-05-06T17:36:05.723Z,18.10
2023-05-06T17:38:34.208Z,17.71
2023-05-06T17:41:02.486Z,17.98
2023-05-06T17:43:30.781Z,17.83
2023-05-06T17:46:00.523Z,17.61
2023-05-06T17:48:28.767Z,17.50
2023-05-06T17:51:02.071Z,17.34
2023-05-06T17:53:32.402Z,17.30
2023-05-06T17:56:00.643Z,17.17
2023-05-06T17:58:28.964Z,17.10
2023-05-06T18:00:57.579Z,17.07
2023-05-06T18:03:27.366Z,15.99
2023-05-06T18:05:55.910Z,17.20
2023-05-06T18:08:42.740Z,17.01
2023-05-06T18:11:11.111Z,16.96
2023-05-06T18:13:40.267Z,16.87
2023-05-06T18:16:09.286Z,16.48
2023-05-06T18:18:38.950Z,16.77
2023-05-06T18:21:07.321Z,16.94
2023-05-06T18:23:35.573Z,16.80
2023-05-06T18:26:05.876Z,16.85
2023-05-06T18:28:37.987Z,16.77
2023-05-06T18:31:06.362Z,16.83
2023-05-06T18:33:35.727Z,16.74
2023-05-06T18:36:05.719Z,16.93
2023-05-06T18:38:34.016Z,17.08
2023-05-06T18:41:03.216Z,17.03
2023-05-06T18:43:31.564Z,17.06
2023-05-06T18:45:59.911Z,17.25
2023-05-06T18:48:30.979Z,17.40
2023-05-06T18:51:12.636Z,17.36
2023-05-06T18:53:41.128Z,17.63
2023-05-06T18:56:10.166Z,17.11
2023-05-06T18:58:39.970Z,16.98
2023-05-06T19:01:09.634Z,16.76
2023-05-06T19:03:38.721Z,16.79
2023-05-06T19:06:09.301Z,16.93
2023-05-06T19:08:39.028Z,16.90
2023-05-06T19:11:07.375Z,16.68
2023-05-06T19:13:35.966Z,16.66
2023-05-06T19:16:04.208Z,16.58
2023-05-06T19:18:32.479Z,16.57
2023-05-06T19:21:00.992Z,16.54
2023-05-06T19:23:29.274Z,16.48
2023-05-06T19:25:58.883Z,16.54
2023-05-06T19:28:27.198Z,16.74
2023-05-06T19:30:55.520Z,16.81
2023-05-06T19:33:23.881Z,16.85
2023-05-06T19:36:09.526Z,16.92
2023-05-06T19:38:38.663Z,16.94
2023-05-06T19:41:08.592Z,17.16
2023-05-06T19:43:42.524Z,17.14
2023-05-06T19:46:13.772Z,17.05
2023-05-06T19:48:42.037Z,16.93
2023-05-06T19:51:10.410Z,16.84
2023-05-06T19:53:38.662Z,16.96
2023-05-06T19:56:12.423Z,17.03
2023-05-06T19:58:41.101Z,16.98
2023-05-06T20:01:09.530Z,16.92
2023-05-06T20:03:38.138Z,16.83
2023-05-06T20:06:06.649Z,16.81
2023-05-06T20:08:35.508Z,16.77
2023-05-06T20:11:03.928Z,16.58
2023-05-06T20:13:33.827Z,16.47
2023-05-06T20:16:02.181Z,16.46
2023-05-06T20:18:32.222Z,13.99
2023-05-06T20:21:00.464Z,15.77
2023-05-06T20:23:28.744Z,15.27
2023-05-06T20:25:57.084Z,15.28
2023-05-06T20:28:25.461Z,15.60
2023-05-06T20:30:55.651Z,15.77
2023-05-06T20:33:23.891Z,15.81
2023-05-06T20:35:52.463Z,15.78
2023-05-06T20:38:20.826Z,15.80
2023-05-06T20:40:49.292Z,15.71
2023-05-06T20:43:17.865Z,15.77
2023-05-06T20:45:46.113Z,15.66
2023-05-06T20:48:15.926Z,15.74
2023-05-06T20:50:44.247Z,15.76
2023-05-06T20:53:12.546Z,15.69
2023-05-06T20:55:40.920Z,15.60
2023-05-06T20:58:09.319Z,15.49
2023-05-06T21:00:37.636Z,14.49
2023-05-06T21:03:06.102Z,15.01
2023-05-06T21:05:35.934Z,14.79
2023-05-06T21:08:04.302Z,15.07
2023-05-06T21:10:32.587Z,14.83
2023-05-06T21:13:01.491Z,14.12
2023-05-06T21:15:29.839Z,14.12
2023-05-06T21:17:58.300Z,13.72
2023-05-06T21:20:26.736Z,13.66
2023-05-06T21:22:56.584Z,13.57
2023-05-06T21:25:25.032Z,13.56
2023-05-06T21:27:53.340Z,13.50
2023-05-06T21:30:23.234Z,13.90
2023-05-06T21:32:51.452Z,13.70
2023-05-06T21:35:19.717Z,13.67
2023-05-06T21:37:48.019Z,13.67
2023-05-06T21:40:17.806Z,14.10
2023-05-06T21:42:46.159Z,14.47
2023-05-06T21:45:16.244Z,14.38
2023-05-06T21:47:45.331Z,14.25
2023-05-06T21:50:13.982Z,14.39
2023-05-06T21:52:42.346Z,14.13
2023-05-06T21:55:11.509Z,14.01
2023-05-06T21:57:41.528Z,13.68
2023-05-06T22:00:12.419Z,14.10
2023-05-06T22:02:41.409Z,13.73
2023-05-06T22:05:10.201Z,14.33
2023-05-06T22:07:38.707Z,14.17
2023-05-06T22:10:07.960Z,13.64
2023-05-06T22:12:36.620Z,13.70
2023-05-06T22:15:07.537Z,13.94
2023-05-06T22:17:35.984Z,14.25
2023-05-06T22:20:04.584Z,14.39
2023-05-06T22:22:33.318Z,14.43
2023-05-06T22:25:01.802Z,14.42
2023-05-06T22:27:30.311Z,14.24
2023-05-06T22:29:58.522Z,14.30
2023-05-06T22:32:28.283Z,14.03
2023-05-06T22:34:56.565Z,14.03
2023-05-06T22:37:24.813Z,14.23
2023-05-06T22:39:53.418Z,14.22
2023-05-06T22:42:21.816Z,13.94
2023-05-06T22:44:50.075Z,13.63
2023-05-06T22:47:19.880Z,13.96
2023-05-06T22:49:49.538Z,14.02
2023-05-06T22:52:19.247Z,14.04
2023-05-06T22:54:47.627Z,13.63
2023-05-06T22:57:16.163Z,13.34
2023-05-06T22:59:44.507Z,13.28
2023-05-06T23:02:12.796Z,13.22
2023-05-06T23:04:41.446Z,13.43
2023-05-06T23:07:11.126Z,13.69
2023-05-06T23:09:39.382Z,13.61
2023-05-06T23:12:07.801Z,13.81
2023-05-06T23:14:36.040Z,13.69
2023-05-06T23:17:04.331Z,13.85
2023-05-06T23:19:32.745Z,13.92
2023-05-06T23:22:00.950Z,13.70
2023-05-06T23:24:30.603Z,13.28
2023-05-06T23:26:58.832Z,13.60
2023-05-06T23:29:27.080Z,13.42
2023-05-06T23:31:55.343Z,13.45
2023-05-06T23:34:23.569Z,13.23
2023-05-06T23:36:52.011Z,13.01
2023-05-06T23:39:20.212Z,13.13
2023-05-06T23:41:49.842Z,12.68
2023-05-06T23:44:18.864Z,12.88
2023-05-06T23:46:47.247Z,13.11
2023-05-06T23:49:15.568Z,13.20
2023-05-06T23:51:43.891Z,13.34
2023-05-06T23:54:12.185Z,13.29
2023-05-06T23:56:40.463Z,13.31
2023-05-06T23:59:10.095Z,13.41
